createdAt,value
2022-12-15T00:04:34.552Z,29.88
2022-12-15T00:09:54.995Z,27.48
2022-12-15T00:15:15.486Z,30.83
2022-12-15T00:20:35.917Z,25.38
2022-12-15T00:25:56.403Z,34.05
2022-12-15T00:31:17.618Z,30.20
2022-12-15T00:36:38.310Z,26.33
2022-12-15T00:41:39.981Z,27.23
2022-12-15T00:46:56.931Z,27.63
2022-12-15T00:52:17.623Z,28.17
2022-12-15T00:57:37.907Z,26.75
2022-12-15T01:02:58.384Z,28.38
2022-12-15T01:08:18.965Z,22.83
2022-12-15T01:13:39.041Z,27.20
2022-12-15T01:18:59.341Z,26.60
2022-12-15T01:24:00.944Z,27.95
2022-12-15T01:29:02.633Z,26.08
2022-12-15T01:34:04.195Z,28.63
2022-12-15T01:39:05.944Z,30.13
2022-12-15T01:44:17.259Z,32.10
2022-12-15T01:49:23.708Z,28.15
2022-12-15T01:59:38.981Z,23.90
2022-12-15T02:04:41.736Z,28.80
2022-12-15T02:09:46.994Z,25.30
2022-12-15T02:15:01.144Z,29.60
2022-12-15T02:20:23.717Z,27.90
2022-12-15T02:25:55.143Z,25.80
2022-12-15T02:31:34.404Z,33.80
2022-12-15T02:36:41.733Z,27.08
2022-12-15T02:41:46.228Z,25.73
2022-12-15T02:47:24.821Z,28.23
2022-12-15T02:52:41.265Z,35.45
2022-12-15T02:57:59.496Z,29.67
2022-12-15T03:03:01.694Z,31.20
2022-12-15T03:08:03.731Z,30.92
2022-12-15T03:13:05.824Z,26.10
2022-12-15T03:18:07.490Z,27.50
2022-12-15T03:23:09.720Z,28.42
2022-12-15T03:28:11.351Z,26.65
2022-12-15T03:33:13.043Z,31.40
2022-12-15T03:38:14.646Z,24.52
2022-12-15T03:43:16.341Z,24.98
2022-12-15T03:48:17.999Z,30.15
2022-12-15T03:53:19.750Z,31.05
2022-12-15T03:58:21.594Z,29.15
2022-12-15T04:03:23.391Z,28.55
2022-12-15T04:08:26.837Z,29.92
2022-12-15T04:13:28.915Z,24.33
2022-12-15T04:18:30.911Z,26.83
2022-12-15T04:23:33.030Z,27.75
2022-12-15T04:28:53.936Z,22.00
2022-12-15T04:34:18.327Z,24.95
2022-12-15T04:39:38.956Z,26.48
2022-12-15T04:44:59.081Z,29.80
2022-12-15T04:50:19.053Z,24.77
2022-12-15T04:55:39.508Z,24.58
2022-12-15T05:00:59.860Z,23.73
2022-12-15T05:06:20.871Z,26.65
2022-12-15T05:11:41.438Z,28.98
2022-12-15T05:17:01.370Z,24.27
2022-12-15T05:22:21.513Z,25.52
2022-12-15T05:27:41.833Z,25.60
2022-12-15T05:32:43.435Z,25.95
2022-12-15T05:37:45.355Z,24.63
2022-12-15T05:42:50.142Z,28.38
2022-12-15T05:47:52.959Z,22.63
2022-12-15T05:52:55.738Z,25.45
2022-12-15T05:57:58.552Z,22.17
2022-12-15T06:03:00.336Z,31.50
2022-12-15T06:08:02.271Z,24.15
2022-12-15T06:19:29.155Z,21.63
2022-12-15T06:24:30.830Z,24.80
2022-12-15T06:29:32.502Z,27.95
2022-12-15T06:34:34.105Z,27.00
2022-12-15T06:39:35.868Z,32.90
2022-12-15T06:44:37.790Z,27.58
2022-12-15T06:49:39.637Z,31.45
2022-12-15T06:54:41.574Z,28.45
2022-12-15T06:59:43.334Z,30.90
2022-12-15T07:04:45.022Z,26.80
2022-12-15T07:09:46.917Z,28.02
2022-12-15T07:14:53.330Z,27.00
2022-12-15T07:19:55.738Z,27.02
2022-12-15T07:24:57.577Z,25.58
2022-12-15T07:29:59.350Z,25.88
2022-12-15T07:35:01.056Z,26.27
2022-12-15T07:40:03.904Z,30.25
2022-12-15T07:45:07.504Z,30.67
2022-12-15T07:50:09.715Z,27.23
2022-12-15T07:55:11.451Z,30.27
2022-12-15T08:00:14.989Z,27.80
2022-12-15T08:05:16.822Z,28.17
2022-12-15T08:10:19.762Z,36.40
2022-12-15T08:15:21.619Z,34.17
2022-12-15T08:20:23.376Z,35.10
2022-12-15T08:25:28.670Z,33.63
2022-12-15T08:30:30.476Z,31.95
2022-12-15T08:35:55.873Z,32.47
2022-12-15T08:40:54.135Z,35.25
2022-12-15T08:45:56.139Z,30.58
2022-12-15T08:50:59.557Z,33.53
2022-12-15T08:56:06.342Z,30.85
2022-12-15T09:01:20.580Z,31.75
2022-12-15T09:11:29.113Z,30.25
2022-12-15T09:16:31.440Z,32.17
2022-12-15T09:21:33.218Z,30.65
2022-12-15T09:26:35.229Z,35.00
2022-12-15T09:31:38.027Z,32.78
2022-12-15T09:36:40.944Z,29.27
2022-12-15T09:41:51.837Z,33.83
2022-12-15T09:47:18.774Z,31.33
2022-12-15T09:52:24.663Z,33.65
2022-12-15T09:57:49.148Z,31.92
2022-12-15T10:03:01.223Z,37.92
2022-12-15T10:08:03.589Z,30.92
2022-12-15T10:13:15.107Z,37.08
2022-12-15T10:18:23.777Z,35.83
2022-12-15T10:23:25.671Z,34.40
2022-12-15T10:28:33.330Z,32.97
2022-12-15T10:33:39.851Z,39.75
2022-12-15T10:43:52.261Z,33.50
2022-12-15T10:48:58.005Z,28.42
2022-12-15T10:54:09.801Z,30.97
2022-12-15T10:59:23.654Z,33.55
2022-12-15T11:04:31.000Z,31.90
2022-12-15T11:09:36.226Z,34.35
2022-12-15T11:14:44.899Z,34.58
2022-12-15T11:20:12.161Z,39.25
2022-12-15T11:25:23.908Z,34.33
2022-12-15T11:30:33.837Z,35.83
2022-12-15T11:35:50.725Z,38.40
2022-12-15T11:40:54.708Z,37.67
2022-12-15T11:46:23.409Z,35.15
2022-12-15T11:51:50.967Z,33.42
2022-12-15T11:57:13.634Z,34.92
2022-12-15T12:02:30.156Z,41.33
2022-12-15T12:12:54.004Z,37.80
2022-12-15T12:18:06.280Z,39.00
2022-12-15T12:23:31.490Z,35.72
2022-12-15T12:28:54.561Z,41.97
2022-12-15T12:34:04.522Z,36.83
2022-12-15T12:39:06.884Z,37.67
2022-12-15T12:44:29.732Z,34.67
2022-12-15T12:50:03.672Z,33.65
2022-12-15T12:55:26.432Z,39.42
2022-12-15T13:00:31.145Z,37.72
2022-12-15T13:05:35.876Z,33.78
2022-12-15T13:10:48.310Z,32.17
2022-12-15T13:16:06.088Z,33.60
2022-12-15T13:21:35.499Z,27.52
2022-12-15T13:26:44.247Z,33.63
2022-12-15T13:31:51.150Z,30.00
2022-12-15T13:36:55.904Z,28.00
2022-12-15T13:42:34.137Z,27.20
2022-12-15T13:47:38.282Z,37.97
2022-12-15T13:58:17.518Z,39.03
2022-12-15T14:03:19.871Z,38.47
2022-12-15T14:08:24.501Z,44.30
2022-12-15T14:13:34.254Z,44.72
2022-12-15T14:18:39.155Z,47.00
2022-12-15T14:24:04.122Z,47.42
2022-12-15T14:29:06.264Z,54.88
2022-12-15T14:34:40.076Z,46.15
2022-12-15T14:39:45.201Z,50.40
2022-12-15T14:44:51.366Z,46.92
2022-12-15T14:49:58.370Z,52.83
2022-12-15T14:55:03.417Z,51.08
2022-12-15T15:00:23.835Z,55.05
2022-12-15T15:05:27.848Z,50.92
2022-12-15T15:10:30.310Z,48.88
2022-12-15T15:15:32.105Z,63.13
2022-12-15T15:20:37.980Z,52.47
2022-12-15T15:25:48.636Z,48.78
2022-12-15T15:30:59.394Z,50.05
2022-12-15T15:36:03.184Z,51.45
2022-12-15T15:41:18.258Z,43.38
2022-12-15T15:46:23.052Z,48.97
2022-12-15T15:51:26.273Z,61.95
2022-12-15T15:56:28.856Z,57.13
2022-12-15T16:01:30.607Z,58.40
2022-12-15T16:06:33.769Z,64.05
2022-12-15T16:11:36.540Z,67.40
2022-12-15T16:16:38.818Z,67.75
2022-12-15T16:21:42.826Z,70.72
2022-12-15T16:26:49.114Z,60.67
2022-12-15T16:31:51.133Z,61.25
2022-12-15T16:36:53.204Z,69.18
2022-12-15T16:41:56.074Z,63.78
2022-12-15T16:46:59.384Z,76.05
2022-12-15T16:52:01.610Z,70.28
2022-12-15T16:57:03.887Z,71.93
2022-12-15T17:02:27.559Z,67.32
2022-12-15T17:07:29.725Z,72.80
2022-12-15T17:12:32.013Z,78.80
2022-12-15T17:17:34.001Z,72.80
2022-12-15T17:22:36.725Z,76.63
2022-12-15T17:27:38.878Z,70.68
2022-12-15T17:32:40.823Z,74.05
2022-12-15T17:37:44.320Z,78.28
2022-12-15T17:42:46.833Z,74.25
2022-12-15T17:47:50.380Z,83.35
2022-12-15T17:52:52.133Z,73.68
2022-12-15T17:57:55.798Z,67.63
2022-12-15T18:02:59.453Z,66.88
2022-12-15T18:08:04.753Z,70.93
2022-12-15T18:13:33.338Z,68.80
2022-12-15T18:18:40.398Z,67.88
2022-12-15T18:23:44.568Z,66.50
2022-12-15T18:28:50.058Z,67.25
2022-12-15T18:33:52.846Z,71.30
2022-12-15T18:38:55.322Z,64.82
2022-12-15T18:43:59.088Z,64.55
2022-12-15T18:49:01.071Z,60.72
2022-12-15T18:54:03.931Z,59.78
2022-12-15T18:59:10.535Z,63.60
2022-12-15T19:04:13.422Z,67.40
2022-12-15T19:09:23.367Z,62.13
2022-12-15T19:14:43.081Z,60.20
2022-12-15T19:20:03.731Z,62.28
2022-12-15T19:25:06.515Z,59.72
2022-12-15T19:30:17.749Z,60.63
2022-12-15T19:35:20.399Z,56.70
2022-12-15T19:40:30.845Z,58.90
2022-12-15T19:45:33.925Z,56.58
2022-12-15T19:50:37.930Z,62.95
2022-12-15T19:55:40.776Z,64.00
2022-12-15T20:00:43.970Z,69.20
2022-12-15T20:05:46.792Z,67.93
2022-12-15T20:10:51.442Z,65.70
2022-12-15T20:15:55.408Z,62.05
2022-12-15T20:20:57.811Z,67.13
2022-12-15T20:26:00.809Z,83.03
2022-12-15T20:31:03.780Z,79.75
2022-12-15T20:36:12.300Z,75.93
2022-12-15T20:41:25.681Z,78.05
2022-12-15T20:46:35.068Z,74.05
2022-12-15T20:51:37.368Z,70.35
2022-12-15T20:56:39.883Z,71.95
2022-12-15T21:01:43.525Z,61.83
2022-12-15T21:06:48.702Z,67.70
2022-12-15T21:11:55.520Z,74.60
2022-12-15T21:16:58.187Z,64.40
2022-12-15T21:22:01.172Z,67.68
2022-12-15T21:27:04.284Z,56.25
2022-12-15T21:32:05.898Z,73.05
2022-12-15T21:37:30.416Z,65.07
2022-12-15T21:42:35.393Z,74.28
2022-12-15T21:47:55.563Z,66.15
2022-12-15T21:52:57.236Z,60.58
2022-12-15T21:57:58.919Z,65.07
2022-12-15T22:03:00.692Z,59.50
2022-12-15T22:08:14.519Z,62.85
2022-12-15T22:13:20.818Z,60.63
2022-12-15T22:18:23.626Z,54.35
2022-12-15T22:23:25.312Z,65.60
2022-12-15T22:28:28.466Z,62.00
2022-12-15T22:33:31.732Z,56.28
2022-12-15T22:38:34.029Z,64.00
2022-12-15T22:43:39.500Z,59.20
2022-12-15T22:48:43.622Z,61.88
2022-12-15T22:53:45.759Z,60.40
2022-12-15T22:58:48.318Z,66.40
2022-12-15T23:03:51.414Z,64.35
2022-12-15T23:08:55.829Z,67.70
2022-12-15T23:13:58.210Z,64.10
2022-12-15T23:19:00.513Z,70.10
2022-12-15T23:24:02.199Z,69.22
2022-12-15T23:29:03.996Z,66.75
2022-12-15T23:34:05.943Z,65.32
2022-12-15T23:39:07.562Z,71.15
2022-12-15T23:44:12.322Z,71.55
2022-12-15T23:49:14.079Z,64.38
2022-12-15T23:54:15.783Z,63.75
2022-12-15T23:59:17.777Z,60.90
